Aeroporto :
LOGIN :

Iscrizione | Disclaimer

   EN    FR    IT 

 










Sommario :    VFR   VFR Marginale   IFR   IFR Intensivo   IFR Molto Intensivo
Visibilità : 
Base nubi : 
>= 8 km
>= 3000ft
5 / 8 km
1000 / 3000 ft
1500m / 5 km
500 / 1000 ft
800 / 1500m
200 / 500 ft
< 800m
< 200 ft
Simboli :   Temporali  Nebbia  Neve Forte  Precipitazioni Forti  Vento > 20 kt
SIGMETs :   Varie  Temporali  Ghiacco  Turbolenza  Onda orograficha  Ceneri Vulcaniche






- Altitudine del aeroporto : 288 ft
- Codice IATA : BZZ


EGVN - RAF Brize Norton

ULTIMO METAR :
  • 241750Z 21004KT 9999 VCSH FEW030 SCT040 14/08 Q1009 NOSIG RMK BLU BLU

METARs OBSOLETI :
  • 241720Z 25009G19KT 9999 -SHRA FEW030 SCT040 14/06 Q1008 NOSIG RMK BLU BLU
  • 241650Z 24008KT 9999 VCSH FEW035 SCT040 16/06 Q1008 NOSIG RMK BLU BLU
  • 241620Z 25005KT 9999 FEW040 16/06 Q1008 NOSIG
  • 241550Z 26008KT 9999 FEW040 17/05 Q1007 NOSIG RMK BLU BLU
  • 241520Z 29009KT 9999 VCSH FEW035CB 18/05 Q1007 NOSIG RMK BLU BLU

TAF TAF EGVN
Valido dal 24 a 18 ore il 25 a 18 ore UTC


241637Z 2418/2518 25008KT 9999 SCT040
PROB30
TEMPO 2503/2507 SCT010
BECMG 2507/2509 BKN018
TEMPO 2507/2514 5000 -RADZ SCT012
PROB30
TEMPO 2509/2514 4000 RADZ
BECMG 2514/2516 SCT028



MetMap, La meteo Aeronautica in un colpo d'occhio ! - Copyright ORBIFLY Dicembre 2007 - Disclaimer

ORBIFLY MET'MAP TEAM :

Programmazione e sviluppo : Alexandra Zaïnal
Concezione : Baudouin d'Aumeries
Supporto tecnico e logistico : Manuel Goepfert
Aiuto : Marc-Olivier Méhu
Aiuto per la traduzione : Arnaldo La Scala

Contatto : metmap@orbifly.com




FONTI E CREDITI :

   NOAA